ADDS METAR Data INFO
IDs: Format: Raw Decoded Include TAF

Data at: 1145 UTC 25 Jun 2018

KCVB 251135Z AUTO 14007KT 5SM HZ BKN014 BKN019 BKN024 25/22 A2997 RMK AO2 T02500222
KCVB 251115Z AUTO 16007KT 10SM BKN014 OVC018 25/22 A2996 RMK AO2 T02520219
KCVB 251055Z AUTO 16005KT 10SM BKN014 BKN019 OVC034 26/22 A2995 RMK AO2 T02550218
KCVB 251035Z AUTO 14009KT 10SM BKN014 OVC024 26/22 A2994 RMK AO2 T02550216
KCVB 251015Z AUTO 15006KT 7SM BKN014 OVC018 25/22 A2993 RMK AO2 T02530216
KCVB 250955Z AUTO 14008KT 10SM BKN014 OVC025 25/22 A2993 RMK AO2 T02530215
KCVB 250935Z AUTO 15009G16KT 10SM OVC014 25/22 A2993 RMK AO2 T02530215
KCVB 250915Z AUTO 15008KT 10SM OVC014 25/22 A2993 RMK AO2 T02530215
KCVB 250855Z AUTO 15009KT 10SM OVC014 25/21 A2993 RMK AO2 T02520213
KCVB 250835Z AUTO 15009KT 10SM OVC014 25/21 A2993 RMK AO2 T02520213
KCVB 250815Z AUTO 15009KT 10SM BKN016 BKN022 25/21 A2994 RMK AO2 T02500212
KCVB 250755Z AUTO 14006KT 10SM BKN016 BKN021 25/21 A2994 RMK AO2 T02480210
KCVB 250735Z AUTO 15007KT 7SM CLR 25/21 A2994 RMK AO2 T02500209
KCVB 250715Z AUTO 14008KT 10SM CLR 25/21 A2994 RMK AO2 T02500209
KCVB 250655Z AUTO 15007KT 10SM SCT019 25/21 A2994 RMK AO2 T02530210
KCVB 250635Z AUTO 15009G15KT 10SM BKN019 BKN023 26/21 A2994 RMK AO2 T02560210
KCVB 250615Z AUTO 15009G17KT 7SM BKN019 26/21 A2994 RMK AO2 T02580209
KCVB 250555Z AUTO 15009G18KT 10SM BKN019 26/21 A2994 RMK AO2 T02600208 10337 20260 403680247
KCVB 250535Z AUTO 15013KT 7SM BKN021 26/21 A2994 RMK AO2 T02620208
KCVB 250515Z AUTO 15008KT 10SM CLR 26/21 A2993 RMK AO2 T02630205
KCVB 250455Z AUTO 15010G15KT 10SM CLR 27/20 A2993 RMK AO2 T02670203
KCVB 250435Z AUTO 14009G16KT 10SM CLR 27/21 A2993 RMK AO2 T02690205
KCVB 250415Z AUTO 14008KT 10SM CLR 27/21 A2992 RMK AO2 T02720206
KCVB 250355Z AUTO 14006KT 10SM CLR 28/20 A2991 RMK AO2 T02750202
KCVB 250335Z AUTO 14007KT 10SM CLR 28/20 A2990 RMK AO2 T02810197
KCVB 250315Z AUTO 14011G15KT 10SM CLR 29/19 A2988 RMK AO2 T02850190
KCVB 250255Z AUTO 15014G17KT 10SM CLR 29/19 A2987 RMK AO2 T02900188
KCVB 250235Z AUTO 14010KT 10SM CLR 29/19 A2986 RMK AO2 T02940192
KCVB 250215Z AUTO 14012G18KT 10SM CLR 30/19 A2985 RMK AO2 T02980190
KCVB 250155Z AUTO 14011G17KT 7SM CLR 30/19 A2985 RMK AO2 T03030190
KCVB 250135Z AUTO 13012G18KT 7SM CLR 31/19 A2984 RMK AO2 T03080190
KCVB 250115Z AUTO 14010G17KT 7SM CLR 32/19 A2984 RMK AO2 T03160189
KCVB 250055Z AUTO 14016G20KT 10SM CLR 33/18 A2983 RMK AO2 T03250182
KCVB 250035Z AUTO 15017G21KT 10SM CLR 33/18 A2982 RMK AO2 T03300181
KCVB 250015Z AUTO 14015G21KT 7SM CLR 34/17 A2982 RMK AO2 T03350173
KCVB 242355Z AUTO 15014G19KT 10SM CLR 34/18 A2982 RMK AO2 T03380179 10368 20338
KCVB 242335Z AUTO 16015G22KT 10SM CLR 35/18 A2982 RMK AO2 T03460177
KCVB 242315Z AUTO 13015G20KT 10SM SCT055 35/18 A2982 RMK AO2 T03470178
KCVB 242255Z AUTO 15015G20KT 7SM CLR 35/18 A2982 RMK AO2 T03540178
KCVB 242235Z AUTO 15011G21KT 7SM CLR 35/17 A2983 RMK AO2 T03530173
KCVB 242215Z AUTO 17015G20KT 10SM CLR 36/17 A2984 RMK AO2 T03620168
KCVB 242155Z AUTO 15015G19KT 7SM CLR 37/17 A2984 RMK AO2 T03650168
KCVB 242135Z AUTO 16014G20KT 10SM CLR 36/17 A2985 RMK AO2 T03620171
KCVB 242115Z AUTO 17012G20KT 7SM CLR 36/17 A2985 RMK AO2 T03640172
KCVB 242055Z AUTO 15011G23KT 10SM CLR 36/16 A2985 RMK AO2 T03560163
KCVB 242035Z AUTO 14014G21KT 10SM CLR 36/17 A2985 RMK AO2 T03620165
KCVB 242015Z AUTO 14016G22KT 10SM CLR 36/17 A2986 RMK AO2 T03610166
KCVB 241955Z AUTO 16013G18KT 7SM CLR 37/17 A2986 RMK AO2 T03660171
KCVB 241935Z AUTO 15014G20KT 10SM CLR 36/17 A2986 RMK AO2 T03640171
KCVB 241915Z AUTO 13010G21KT 7SM CLR 36/17 A2986 RMK AO2 T03580168
KCVB 241855Z AUTO 14008G16KT 7SM CLR 36/17 A2986 RMK AO2 T03590172
KCVB 241835Z AUTO 18009G19KT 7SM CLR 36/17 A2986 RMK AO2 T03600170
KCVB 241815Z AUTO 17010G16KT 10SM CLR 35/18 A2986 RMK AO2 T03540175
KCVB 241755Z AUTO 14012G16KT 7SM CLR 35/18 A2986 RMK AO2 T03460178 10346 20247
KCVB 241735Z AUTO 17012G17KT 7SM CLR 34/18 A2987 RMK AO2 T03400182
KCVB 241715Z AUTO 18012G17KT 7SM CLR 34/18 A2987 RMK AO2 T03350184
KCVB 241655Z AUTO 19011G15KT 10SM CLR 33/19 A2987 RMK AO2 T03290190
KCVB 241635Z AUTO 18009G14KT 10SM CLR 32/19 A2987 RMK AO2 T03240192
KCVB 241615Z AUTO 17012KT 10SM CLR 32/19 A2987 RMK AO2 T03170193
KCVB 241555Z AUTO 17016G23KT 10SM SCT033 31/20 A2987 RMK AO2 T03090195
KCVB 241535Z AUTO 19012G18KT 10SM SCT028 31/20 A2988 RMK AO2 T03050195
KCVB 241515Z AUTO 17010G14KT 10SM BKN024 30/20 A2988 RMK AO2 T03010202
KCVB 241455Z AUTO 17012G18KT 10SM BKN022 BKN028 30/20 A2988 RMK AO2 T02960204
KCVB 241435Z AUTO 19012G18KT 10SM SCT022 29/20 A2988 RMK AO2 T02850202
KCVB 241415Z AUTO 18010G18KT 10SM BKN018 BKN023 28/21 A2988 RMK AO2 T02800207
KCVB 241355Z AUTO 17011KT 10SM OVC018 27/21 A2988 RMK AO2 T02720210
KCVB 241335Z AUTO 16008KT 10SM OVC018 27/21 A2988 RMK AO2 T02660211
KCVB 241315Z AUTO 16013G18KT 10SM BKN016 BKN021 26/21 A2987 RMK AO2 T02610212
KCVB 241255Z AUTO 15009KT 7SM SCT020 26/22 A2987 RMK AO2 T02570218
KCVB 241235Z AUTO 15007KT 7SM SCT020 25/22 A2987 RMK AO2 T02520222
KCVB 241215Z AUTO 15007KT 7SM BKN020 25/23 A2987 RMK AO2 T02500225
KCVB 241155Z AUTO 14004KT 7SM SCT020 25/22 A2987 RMK AO2 T02480216 10274 20248
KCVB 241135Z AUTO 14006KT 7SM SCT022 25/21 A2987 RMK AO2 T02480213
KCVB 241115Z AUTO 15007KT 10SM SCT024 25/21 A2987 RMK AO2 T02500212
KCVB 241055Z AUTO 14005KT 10SM BKN024 BKN031 25/21 A2988 RMK AO2 T02500211
KCVB 241035Z AUTO 00000KT 10SM SCT024 BKN032 25/21 A2989 RMK AO2 T02520212
KCVB 241015Z AUTO 11004KT 10SM SCT024 SCT033 25/21 A2989 RMK AO2 T02520211
KCVB 240955Z AUTO 14006KT 10SM SCT025 BKN031 25/21 A2988 RMK AO2 T02540210
KCVB 240935Z AUTO 13003KT 10SM SCT023 SCT029 26/21 A2989 RMK AO2 T02560210
KCVB 240915Z AUTO 15005KT 10SM SCT023 SCT030 SCT035 26/21 A2988 RMK AO2 T02570210
KCVB 240855Z AUTO 14006KT 10SM BKN022 BKN028 BKN033 26/21 A2988 RMK AO2 T02600210
KCVB 240835Z AUTO 15006KT 10SM BKN020 OVC028 26/21 A2989 RMK AO2 T02610212
KCVB 240815Z AUTO 14007KT 10SM BKN018 OVC028 26/21 A2990 RMK AO2 T02620213
KCVB 240755Z AUTO 14007KT 10SM BKN016 OVC022 26/22 A2989 RMK AO2 T02630215
KCVB 240735Z AUTO 14006KT 10SM BKN016 OVC022 26/22 A2988 RMK AO2 T02630220
KCVB 240715Z AUTO 14009KT 10SM OVC016 27/22 A2987 RMK AO2 T02650220
KCVB 240655Z AUTO 14011G16KT 10SM OVC016 27/22 A2987 RMK AO2 T02670221
KCVB 240635Z AUTO 15008G17KT 10SM OVC016 27/22 A2987 RMK AO2 LTG DSNT NE T02700223
KCVB 240615Z AUTO 13009G14KT 10SM OVC018 27/23 A2986 RMK AO2 T02720225
KCVB 240555Z AUTO 14011KT 10SM OVC018 28/23 A2986 RMK AO2 T02750225 10355 20275 403690234
KCVB 240535Z AUTO 15012KT 10SM OVC018 28/23 A2986 RMK AO2 LTG DSNT NE T02770225
KCVB 240515Z AUTO 16013G17KT 10SM OVC018 28/23 A2986 RMK AO2 T02800227
KCVB 240455Z AUTO 14010G17KT 10SM OVC018 28/23 A2986 RMK AO2 T02810228
KCVB 240435Z AUTO 13009KT 10SM OVC018 28/23 A2985 RMK AO2 T02840229
KCVB 240415Z AUTO 14010G19KT 10SM OVC018 29/23 A2984 RMK AO2 T02850228
KCVB 240355Z AUTO 14012KT 10SM OVC018 29/23 A2982 RMK AO2 T02850228
KCVB 240335Z AUTO 14012G19KT 10SM BKN020 29/23 A2981 RMK AO2 T02870229
KCVB 240315Z AUTO 15015G21KT 7SM BKN022 29/23 A2980 RMK AO2 T02910230
KCVB 240255Z AUTO 13013G19KT 7SM BKN022 30/23 A2978 RMK AO2 T02970231
KCVB 240235Z AUTO 14012G18KT 10SM CLR 30/23 A2977 RMK AO2 T03030228
KCVB 240215Z AUTO 14013G21KT 7SM CLR 31/23 A2976 RMK AO2 T03100225
KCVB 240155Z AUTO 13014G19KT 5SM HZ CLR 32/22 A2976 RMK AO2 T03150221
KCVB 240135Z AUTO 14011G19KT 7SM CLR 33/21 A2976 RMK AO2 T03250211
KCVB 240115Z AUTO 14013G17KT 7SM CLR 33/20 A2975 RMK AO2 T03320201
KCVB 240055Z AUTO 14013G18KT 10SM CLR 34/20 A2975 RMK AO2 T03400197
KCVB 240035Z AUTO 15014G17KT 7SM CLR 35/19 A2975 RMK AO2 T03470192
KCVB 240015Z AUTO 15014G19KT 7SM CLR 35/19 A2974 RMK AO2 T03520190
KCVB 232355Z AUTO 15011KT 10SM CLR 36/19 A2974 RMK AO2 T03560188 10369 20346